Time;durP1;ratioP1;P1;durP2;ratioP2;P2;SDS_P1;SDS_P2;PMS_P1;PMS_P2;Temp;Humidity;BMP_temperature;BMP_pressure;BME280_temperature;BME280_humidity;BME280_pressure;Samples;Min_cycle;Max_cycle;Signal;HPM_P1;HPM_P2
2022/10/23 00:01:28;;;;;;;1.73;1.02;;;20.30;64.10;;;;;;5109337;27;45037;-59
2022/10/23 00:03:58;;;;;;;1.73;1.30;;;20.30;64.80;;;;;;5117261;27;43486;-59
2022/10/23 00:06:27;;;;;;;1.20;1.08;;;20.20;64.10;;;;;;5113442;27;43457;-59
2022/10/23 00:08:55;;;;;;;1.88;1.13;;;20.20;64.00;;;;;;5113146;27;43520;-59
2022/10/23 00:11:25;;;;;;;1.33;1.10;;;20.20;64.10;;;;;;5106323;27;43650;-59
2022/10/23 00:13:55;;;;;;;1.65;1.20;;;20.20;64.10;;;;;;5109062;27;43876;-59
2022/10/23 00:16:23;;;;;;;1.23;1.05;;;20.20;64.10;;;;;;5109531;27;43480;-59
2022/10/23 00:18:50;;;;;;;1.50;1.33;;;20.20;64.10;;;;;;5112203;27;43518;-59
2022/10/23 00:21:18;;;;;;;2.10;1.42;;;20.20;64.10;;;;;;5108568;27;43858;-59
2022/10/23 00:23:46;;;;;;;1.65;1.20;;;20.20;64.70;;;;;;5109065;27;43419;-59
2022/10/23 00:26:14;;;;;;;1.75;1.40;;;20.20;64.10;;;;;;5108891;27;43450;-59
2022/10/23 00:28:44;;;;;;;2.10;1.35;;;20.20;64.10;;;;;;5110781;27;43492;-59
2022/10/23 00:31:11;;;;;;;1.42;1.23;;;20.20;64.10;;;;;;5109346;27;43931;-59
2022/10/23 00:33:40;;;;;;;1.40;1.30;;;20.10;64.10;;;;;;5108510;27;43490;-59
2022/10/23 00:36:11;;;;;;;1.33;1.20;;;20.10;64.10;;;;;;5109787;27;43456;-59
2022/10/23 00:38:39;;;;;;;1.45;1.10;;;20.10;64.10;;;;;;5110560;27;43441;-59
2022/10/23 00:41:07;;;;;;;1.45;1.20;;;20.10;64.10;;;;;;5095763;27;44968;-59
2022/10/23 00:43:59;;;;;;;1.63;1.30;;;20.10;64.10;;;;;;5112078;27;43807;-59
2022/10/23 00:46:27;;;;;;;1.30;1.20;;;20.10;64.00;;;;;;5109214;27;43480;-59
2022/10/23 00:48:55;;;;;;;1.40;1.20;;;20.10;64.10;;;;;;5090366;27;43487;-59
2022/10/23 00:51:26;;;;;;;2.33;1.40;;;20.10;64.10;;;;;;5089970;27;44040;-59
2022/10/23 00:53:58;;;;;;;1.40;1.30;;;20.10;64.10;;;;;;5117679;27;43953;-59
2022/10/23 00:56:47;;;;;;;1.48;1.20;;;20.10;64.10;;;;;;5110084;27;43485;-59
2022/10/23 00:59:15;;;;;;;1.75;1.50;;;20.10;64.70;;;;;;5125391;27;43388;-59
2022/10/23 01:01:42;;;;;;;1.58;1.48;;;20.10;64.10;;;;;;5093346;27;44224;-59
2022/10/23 01:04:10;;;;;;;2.30;1.10;;;20.10;64.10;;;;;;5095375;27;43455;-59
2022/10/23 01:06:44;;;;;;;1.63;1.20;;;20.10;64.00;;;;;;5090107;27;43473;-59
2022/10/23 01:09:17;;;;;;;1.48;1.33;;;20.10;64.10;;;;;;5089973;27;43556;-59
2022/10/23 01:11:57;;;;;;;1.83;1.20;;;20.10;64.10;;;;;;5111099;27;44805;-59
2022/10/23 01:14:44;;;;;;;1.40;1.30;;;20.10;64.10;;;;;;5090027;27;43921;-59
2022/10/23 01:17:32;;;;;;;1.20;1.10;;;20.00;64.00;;;;;;5089516;27;43939;-59
2022/10/23 01:20:22;;;;;;;1.98;1.05;;;20.00;64.00;;;;;;5103786;27;43623;-59
2022/10/23 01:23:23;;;;;;;1.60;1.20;;;20.00;64.00;;;;;;5107815;27;44088;-59
2022/10/23 01:26:09;;;;;;;1.48;1.00;;;20.00;64.00;;;;;;5070490;27;43445;-59
2022/10/23 01:28:37;;;;;;;1.52;1.30;;;20.00;64.10;;;;;;5107222;27;43528;-59
2022/10/23 01:31:11;;;;;;;1.60;1.30;;;20.00;64.00;;;;;;5089844;27;43423;-59
2022/10/23 01:33:43;;;;;;;1.30;1.20;;;20.00;64.10;;;;;;5110072;27;43885;-59
2022/10/23 01:36:14;;;;;;;1.60;1.35;;;20.00;64.10;;;;;;5089683;27;43477;-59
2022/10/23 01:38:42;;;;;;;;;;;20.00;64.00;;;;;;5088007;27;43987;-59
2022/10/23 01:41:35;;;;;;;1.83;1.35;;;20.00;64.00;;;;;;5092915;27;43481;-59
2022/10/23 01:44:10;;;;;;;1.60;1.10;;;19.90;64.00;;;;;;5107753;27;44952;-59
2022/10/23 01:46:39;;;;;;;1.42;1.30;;;20.00;64.00;;;;;;5088645;27;43995;-59
2022/10/23 01:49:11;;;;;;;2.00;1.23;;;19.90;64.00;;;;;;5092837;27;43542;-59
2022/10/23 01:51:43;;;;;;;1.80;1.30;;;19.90;64.00;;;;;;5094431;27;43577;-59
2022/10/23 01:54:13;;;;;;;0.80;0.80;;;19.90;64.00;;;;;;5082345;27;43806;-59
2022/10/23 01:56:45;;;;;;;0.95;0.95;;;19.90;64.00;;;;;;5086173;27;43757;-59
2022/10/23 01:59:18;;;;;;;1.00;1.00;;;19.90;64.00;;;;;;5091416;27;43508;-59
2022/10/23 02:01:49;;;;;;;1.10;1.00;;;19.90;64.00;;;;;;5086004;27;43389;-59
2022/10/23 02:04:24;;;;;;;1.10;1.00;;;19.90;64.00;;;;;;5098085;27;44042;-59
2022/10/23 02:06:52;;;;;;;0.75;0.75;;;19.90;64.00;;;;;;5088429;27;43492;-59
2022/10/23 02:09:19;;;;;;;1.02;1.02;;;19.90;63.90;;;;;;5085862;27;43486;-59
2022/10/23 02:12:19;;;;;;;1.10;1.00;;;19.90;63.90;;;;;;5085463;27;43544;-59
2022/10/23 02:14:55;;;;;;;1.15;0.95;;;19.90;63.90;;;;;;5089903;27;44934;-59
2022/10/23 02:17:48;;;;;;;1.23;1.13;;;19.80;63.90;;;;;;5098999;27;43481;-59
2022/10/23 02:20:31;;;;;;;0.95;0.95;;;19.80;63.90;;;;;;5088942;27;43509;-59
2022/10/23 02:23:26;;;;;;;1.00;1.00;;;19.80;63.90;;;;;;5088545;27;43493;-59
2022/10/23 02:26:07;;;;;;;1.15;0.93;;;19.80;63.90;;;;;;5086819;27;44064;-59
2022/10/23 02:28:45;;;;;;;1.20;1.10;;;19.80;63.90;;;;;;5084984;27;43395;-59
2022/10/23 02:31:16;;;;;;;0.90;0.90;;;19.80;63.90;;;;;;5087035;27;43473;-59
2022/10/23 02:33:46;;;;;;;1.70;1.27;;;19.80;63.90;;;;;;5082315;27;43382;-59
2022/10/23 02:36:14;;;;;;;1.02;1.02;;;19.80;63.90;;;;;;5087011;27;44318;-59
2022/10/23 02:38:43;;;;;;;1.00;0.90;;;19.80;63.90;;;;;;5082787;27;43488;-59
2022/10/23 02:41:32;;;;;;;1.10;1.05;;;19.80;64.00;;;;;;5101205;27;43393;-59
2022/10/23 02:44:37;;;;;;;1.13;0.90;;;19.80;63.90;;;;;;5089401;27;43564;-59
2022/10/23 02:47:23;;;;;;;0.95;0.90;;;19.80;63.90;;;;;;5091457;27;44049;-59
2022/10/23 02:50:20;;;;;;;1.05;1.05;;;19.80;64.00;;;;;;5085932;27;43676;-59
2022/10/23 02:53:07;;;;;;;1.00;1.00;;;19.70;63.90;;;;;;5112282;27;43430;-59
2022/10/23 02:55:59;;;;;;;1.20;1.10;;;19.70;64.00;;;;;;5090125;27;43447;-59
2022/10/23 02:58:55;;;;;;;1.27;1.17;;;19.70;64.00;;;;;;5085755;27;43783;-59
2022/10/23 03:01:43;;;;;;;1.02;1.00;;;19.70;64.00;;;;;;5081676;27;43508;-59
2022/10/23 03:04:12;;;;;;;1.00;0.90;;;19.70;64.00;;;;;;5088515;27;43351;-59
2022/10/23 03:06:40;;;;;;;1.40;1.00;;;19.70;64.00;;;;;;5086179;27;43536;-59
2022/10/23 03:09:13;;;;;;;1.20;1.10;;;19.70;64.00;;;;;;5084385;27;44967;-59
2022/10/23 03:11:41;;;;;;;0.80;0.80;;;19.70;64.00;;;;;;5088403;27;43791;-59
2022/10/23 03:14:11;;;;;;;0.90;0.90;;;19.70;64.00;;;;;;5086150;27;43403;-59
2022/10/23 03:16:39;;;;;;;1.13;1.10;;;19.70;63.90;;;;;;5086382;27;43497;-59
2022/10/23 03:19:08;;;;;;;0.82;0.80;;;19.70;63.90;;;;;;5084681;27;45029;-59
2022/10/23 03:21:36;;;;;;;0.95;0.95;;;19.70;63.90;;;;;;5087568;27;43970;-59
2022/10/23 03:24:07;;;;;;;1.13;1.00;;;19.70;63.90;;;;;;5097060;27;43418;-59
2022/10/23 03:26:39;;;;;;;0.93;0.82;;;19.60;63.90;;;;;;5084198;27;44074;-59
2022/10/23 03:29:07;;;;;;;0.93;0.93;;;19.60;63.90;;;;;;5086062;27;44661;-59
2022/10/23 03:31:41;;;;;;;0.75;0.75;;;19.60;63.90;;;;;;5086644;27;44094;-59
2022/10/23 03:34:10;;;;;;;1.30;1.00;;;19.60;63.90;;;;;;5090755;27;43418;-59
2022/10/23 03:36:39;;;;;;;1.00;0.90;;;19.70;63.90;;;;;;5084198;27;43523;-59
2022/10/23 03:39:08;;;;;;;0.90;0.90;;;19.60;63.90;;;;;;5086143;27;43915;-59
2022/10/23 03:41:36;;;;;;;1.00;1.00;;;19.60;63.90;;;;;;5088672;27;43674;-59
2022/10/23 03:44:03;;;;;;;1.00;1.00;;;19.60;63.80;;;;;;5094887;27;43375;-59
2022/10/23 03:46:36;;;;;;;0.70;0.70;;;19.60;63.80;;;;;;5083780;27;43351;-59
2022/10/23 03:49:04;;;;;;;0.80;0.80;;;19.60;63.80;;;;;;5087212;27;44686;-59
2022/10/23 03:51:33;;;;;;;1.00;1.00;;;19.60;63.80;;;;;;5095729;27;43906;-59
2022/10/23 03:54:01;;;;;;;1.10;1.00;;;19.60;63.90;;;;;;5113602;27;43434;-59
2022/10/23 03:56:28;;;;;;;0.90;0.90;;;19.60;63.80;;;;;;5085798;27;43532;-59
2022/10/23 03:58:56;;;;;;;0.70;0.70;;;19.60;63.80;;;;;;5109606;27;43894;-59
2022/10/23 04:01:25;;;;;;;0.77;0.77;;;19.60;63.80;;;;;;5100323;27;43389;-59
2022/10/23 04:03:54;;;;;;;0.82;0.82;;;19.60;63.80;;;;;;5098992;27;43498;-59
2022/10/23 04:06:23;;;;;;;0.90;0.90;;;19.60;63.90;;;;;;5094930;27;43577;-59
2022/10/23 04:08:55;;;;;;;0.95;0.95;;;19.60;63.90;;;;;;5104267;27;44076;-59
2022/10/23 04:11:22;;;;;;;0.75;0.75;;;19.60;63.80;;;;;;5081546;27;43783;-59
2022/10/23 04:13:49;;;;;;;0.90;0.90;;;19.50;63.80;;;;;;5090723;27;43416;-59
2022/10/23 04:16:17;;;;;;;0.77;0.77;;;19.60;63.80;;;;;;5109440;27;43485;-59
2022/10/23 04:18:44;;;;;;;1.05;0.98;;;19.60;63.80;;;;;;5112368;27;44783;-59
2022/10/23 04:21:12;;;;;;;0.70;0.70;;;19.50;63.80;;;;;;5090701;27;43411;-59
2022/10/23 04:23:39;;;;;;;0.75;0.70;;;19.50;63.80;;;;;;5109173;27;43457;-59
2022/10/23 04:26:25;;;;;;;0.77;0.77;;;19.50;63.80;;;;;;5093138;27;43482;-59
2022/10/23 04:28:52;;;;;;;0.70;0.70;;;19.50;63.80;;;;;;5109435;27;44724;-59
2022/10/23 04:31:20;;;;;;;0.70;0.70;;;19.50;63.80;;;;;;5109019;27;43453;-59
2022/10/23 04:33:48;;;;;;;0.70;0.70;;;19.50;63.80;;;;;;5090104;27;43539;-59
2022/10/23 04:36:28;;;;;;;1.20;0.85;;;19.50;63.80;;;;;;5093240;27;43488;-59
2022/10/23 04:39:01;;;;;;;1.10;1.00;;;19.50;63.80;;;;;;5091209;27;44931;-59
2022/10/23 04:41:29;;;;;;;1.10;1.00;;;19.50;63.80;;;;;;5093826;27;43838;-59
2022/10/23 04:43:56;;;;;;;0.70;0.70;;;19.50;63.80;;;;;;5094640;27;43435;-59
2022/10/23 04:46:24;;;;;;;0.95;0.95;;;19.50;63.70;;;;;;5092536;27;43500;-59
2022/10/23 04:48:51;;;;;;;0.70;0.70;;;19.50;63.80;;;;;;5108000;27;44723;-59
2022/10/23 04:51:26;;;;;;;0.90;0.90;;;19.50;63.80;;;;;;5089764;27;43392;-59
2022/10/23 04:54:16;;;;;;;0.98;0.98;;;19.50;63.80;;;;;;5107010;27;43379;-59
2022/10/23 04:56:57;;;;;;;0.88;0.88;;;19.40;63.80;;;;;;5090310;27;43478;-59
2022/10/23 04:59:26;;;;;;;0.80;0.80;;;19.40;63.70;;;;;;5101525;27;45174;-59
2022/10/23 05:01:54;;;;;;;0.80;0.80;;;19.40;63.80;;;;;;5091531;27;43509;-59
2022/10/23 05:04:23;;;;;;;1.55;1.02;;;19.40;64.10;;;;;;5105255;27;43504;-59
2022/10/23 05:07:09;;;;;;;0.90;0.90;;;19.40;63.70;;;;;;5107182;27;43452;-59
2022/10/23 05:09:56;;;;;;;0.80;0.80;;;19.40;63.70;;;;;;5096839;27;43955;-59
2022/10/23 05:12:47;;;;;;;0.80;0.80;;;19.40;63.80;;;;;;5105997;27;43798;-59
2022/10/23 05:15:14;;;;;;;0.90;0.90;;;19.40;63.80;;;;;;5095133;27;43468;-59
2022/10/23 05:17:45;;;;;;;0.95;0.95;;;19.40;63.80;;;;;;5102624;27;44133;-59
2022/10/23 05:20:18;;;;;;;0.77;0.77;;;19.40;63.90;;;;;;5113727;27;44760;-58
2022/10/23 05:22:51;;;;;;;1.10;1.00;;;19.40;64.00;;;;;;5124561;27;43840;-59
2022/10/23 05:25:23;;;;;;;0.90;0.90;;;19.40;63.90;;;;;;5096796;27;43439;-59
2022/10/23 05:27:58;;;;;;;0.80;0.80;;;19.30;63.80;;;;;;5099345;27;43765;-59
2022/10/23 05:30:26;;;;;;;0.88;0.88;;;19.40;63.90;;;;;;5102324;27;43777;-59
2022/10/23 05:32:54;;;;;;;1.10;1.10;;;19.40;63.90;;;;;;5094538;27;43470;-59
2022/10/23 05:35:24;;;;;;;0.88;0.88;;;19.40;63.80;;;;;;5092852;27;43540;-60
2022/10/23 05:37:53;;;;;;;1.17;1.08;;;19.40;63.80;;;;;;5116267;27;43498;-59
2022/10/23 05:40:23;;;;;;;1.05;0.95;;;19.30;63.80;;;;;;5105225;27;44036;-59
2022/10/23 05:42:57;;;;;;;1.13;1.05;;;19.40;63.80;;;;;;5104000;27;43464;-60
2022/10/23 05:45:35;;;;;;;0.80;0.80;;;19.40;63.80;;;;;;5093040;27;43993;-59
2022/10/23 05:48:21;;;;;;;1.08;1.08;;;19.40;63.80;;;;;;5103147;27;43552;-59
2022/10/23 05:51:21;;;;;;;1.00;1.00;;;19.40;63.80;;;;;;5120195;27;44002;-60
2022/10/23 05:54:06;;;;;;;1.08;1.08;;;19.30;63.70;;;;;;5094467;27;43514;-60
2022/10/23 05:56:45;;;;;;;1.23;0.98;;;19.30;63.70;;;;;;5097734;27;44150;-59
2022/10/23 05:59:21;;;;;;;1.00;1.00;;;19.30;63.70;;;;;;5098093;27;43540;-59
2022/10/23 06:02:08;;;;;;;1.40;1.17;;;19.30;63.70;;;;;;5117872;27;43725;-59
2022/10/23 06:04:47;;;;;;;1.00;1.00;;;19.30;63.70;;;;;;5098066;27;43392;-59
2022/10/23 06:07:33;;;;;;;1.25;1.23;;;19.30;64.10;;;;;;5117481;27;43440;-59
2022/10/23 06:10:05;;;;;;;1.30;1.20;;;19.30;63.80;;;;;;5101573;27;43403;-59
2022/10/23 06:12:38;;;;;;;1.20;1.20;;;19.30;63.80;;;;;;5095314;27;44182;-59
2022/10/23 06:15:06;;;;;;;1.67;1.58;;;19.30;63.90;;;;;;5083172;27;44004;-59
2022/10/23 06:17:51;;;;;;;1.60;1.50;;;19.30;63.80;;;;;;5098580;27;43479;-59
2022/10/23 06:20:19;;;;;;;1.30;1.20;;;19.30;63.90;;;;;;5099213;27;43455;-59
2022/10/23 06:23:03;;;;;;;1.23;1.13;;;19.30;63.90;;;;;;5081788;27;44075;-59
2022/10/23 06:25:54;;;;;;;1.15;1.08;;;19.30;63.80;;;;;;5103035;27;43857;-59
2022/10/23 06:28:30;;;;;;;1.10;1.10;;;19.30;63.80;;;;;;5098320;27;43411;-59
2022/10/23 06:30:58;;;;;;;1.60;1.50;;;19.30;63.80;;;;;;5102705;27;43553;-59
2022/10/23 06:33:26;;;;;;;1.23;1.23;;;19.30;63.90;;;;;;5092690;27;44068;-59
2022/10/23 06:35:55;;;;;;;1.30;1.20;;;19.30;63.80;;;;;;5097575;27;43516;-60
2022/10/23 06:38:22;;;;;;;1.30;1.27;;;19.30;63.90;;;;;;5094776;27;43413;-59
2022/10/23 06:40:57;;;;;;;1.30;1.20;;;19.30;63.90;;;;;;5092561;27;43543;-59
2022/10/23 06:43:33;;;;;;;1.40;1.30;;;19.30;63.80;;;;;;5090064;27;43964;-59
2022/10/23 06:46:15;;;;;;;1.15;1.15;;;19.30;63.80;;;;;;5095583;27;43879;-60
2022/10/23 06:49:03;;;;;;;2.20;1.10;;;19.30;63.90;;;;;;5094962;27;43446;-60
2022/10/23 06:51:34;;;;;;;1.70;1.05;;;19.30;63.80;;;;;;5089110;27;43979;-60
2022/10/23 06:54:04;;;;;;;1.60;1.50;;;19.20;63.90;;;;;;5101281;27;45002;-60
2022/10/23 06:56:50;;;;;;;1.40;1.30;;;19.20;63.80;;;;;;5116346;27;43408;-61
2022/10/23 06:59:21;;;;;;;1.33;1.23;;;19.20;63.90;;;;;;5092086;27;43514;-60
2022/10/23 07:01:51;;;;;;;1.20;1.20;;;19.20;63.90;;;;;;5081113;27;43482;-60
2022/10/23 07:04:18;;;;;;;1.35;1.25;;;19.20;63.90;;;;;;5098553;27;43912;-60
2022/10/23 07:06:47;;;;;;;1.38;1.27;;;19.20;63.90;;;;;;5115711;27;43485;-60
2022/10/23 07:09:19;;;;;;;1.30;1.20;;;19.20;63.90;;;;;;5096338;27;43482;-59
2022/10/23 07:12:06;;;;;;;1.58;1.48;;;19.20;63.90;;;;;;5119339;27;43510;-60
2022/10/23 07:14:42;;;;;;;1.40;1.30;;;19.20;63.90;;;;;;5095134;27;43884;-60
2022/10/23 07:17:11;;;;;;;1.58;1.48;;;19.20;63.80;;;;;;5082681;27;43715;-60
2022/10/23 07:19:39;;;;;;;1.35;1.25;;;19.20;63.90;;;;;;5093118;27;43496;-60
2022/10/23 07:22:10;;;;;;;1.40;1.30;;;19.20;63.80;;;;;;5095704;27;43467;-60
2022/10/23 07:24:42;;;;;;;1.45;1.38;;;19.20;63.80;;;;;;5093965;27;45141;-60
2022/10/23 07:27:18;;;;;;;1.50;1.40;;;19.30;63.80;;;;;;5073703;27;43467;-60
2022/10/23 07:29:53;;;;;;;1.65;1.30;;;19.30;63.80;;;;;;5096673;27;43383;-60
2022/10/23 07:32:22;;;;;;;1.40;1.30;;;19.30;63.80;;;;;;5095139;27;43463;-60
2022/10/23 07:35:14;;;;;;;1.10;1.10;;;19.30;63.70;;;;;;5058745;27;44522;-60
2022/10/23 07:37:59;;;;;;;1.13;1.13;;;19.30;63.80;;;;;;5096102;27;43732;-60
2022/10/23 07:40:30;;;;;;;2.65;1.30;;;19.30;63.80;;;;;;5103852;27;43449;-60
2022/10/23 07:42:57;;;;;;;1.45;1.30;;;19.30;63.80;;;;;;5100890;27;43484;-60
2022/10/23 07:45:25;;;;;;;1.20;1.20;;;19.30;63.80;;;;;;5101115;27;44361;-60
2022/10/23 07:47:53;;;;;;;1.58;1.40;;;19.30;63.80;;;;;;5095572;27;43388;-59
2022/10/23 07:50:24;;;;;;;;;;;19.30;63.70;;;;;;5104827;27;43460;-60
2022/10/23 07:52:51;;;;;;;1.30;1.20;;;19.30;63.70;;;;;;5107630;27;43493;-60
2022/10/23 07:55:20;;;;;;;1.50;1.17;;;19.30;63.80;;;;;;5108880;27;43974;-60
2022/10/23 07:57:57;;;;;;;2.15;1.27;;;19.30;63.80;;;;;;5098647;27;43687;-60
2022/10/23 08:00:50;;;;;;;2.15;1.00;;;19.30;63.80;;;;;;5119573;27;43445;-60
2022/10/23 08:03:28;;;;;;;1.90;1.58;;;19.30;63.80;;;;;;5107063;27;43372;-59
2022/10/23 08:05:56;;;;;;;1.10;1.10;;;19.30;63.70;;;;;;5096898;27;43922;-60
2022/10/23 08:08:25;;;;;;;1.90;1.13;;;19.40;63.80;;;;;;5103492;27;43418;-59
2022/10/23 08:10:58;;;;;;;1.38;1.30;;;19.40;63.70;;;;;;5101171;27;43422;-60
2022/10/23 08:13:31;;;;;;;1.42;1.30;;;19.40;63.70;;;;;;5091320;27;43563;-60
2022/10/23 08:16:03;;;;;;;1.45;1.30;;;19.40;63.70;;;;;;5100010;27;43876;-60
2022/10/23 08:18:49;;;;;;;1.48;1.30;;;19.40;63.70;;;;;;5118691;27;43445;-60
2022/10/23 08:21:18;;;;;;;1.17;1.17;;;19.40;63.70;;;;;;5089700;27;43524;-60
2022/10/23 08:23:48;;;;;;;1.30;1.20;;;19.40;63.70;;;;;;5095862;27;43551;-60
2022/10/23 08:26:15;;;;;;;1.55;1.45;;;19.40;63.70;;;;;;5101431;27;45439;-59
2022/10/23 08:28:43;;;;;;;1.50;1.35;;;19.50;64.00;;;;;;5102654;27;43431;-61
2022/10/23 08:31:13;;;;;;;1.95;1.20;;;19.50;63.80;;;;;;5090770;27;43422;-60
2022/10/23 08:33:50;;;;;;;1.50;1.40;;;19.50;63.80;;;;;;5097809;27;43522;-60
2022/10/23 08:36:27;;;;;;;1.20;1.10;;;19.50;63.80;;;;;;5102670;27;45067;-60
2022/10/23 08:38:56;;;;;;;1.30;1.20;;;19.50;63.80;;;;;;5073429;27;44831;-59
2022/10/23 08:41:27;;;;;;;1.50;1.40;;;19.60;63.80;;;;;;5089824;27;43475;-59
2022/10/23 08:44:25;;;;;;;1.88;1.27;;;19.60;63.80;;;;;;5099672;27;43537;-60
2022/10/23 08:46:59;;;;;;;1.27;1.17;;;19.60;63.80;;;;;;5120232;27;43878;-59
2022/10/23 08:49:54;;;;;;;2.13;1.45;;;19.60;63.80;;;;;;5112285;27;43550;-60
2022/10/23 08:52:43;;;;;;;1.23;1.13;;;19.60;63.80;;;;;;5094175;27;43364;-59
2022/10/23 08:55:32;;;;;;;1.30;1.20;;;19.60;63.80;;;;;;5120959;27;43505;-60
2022/10/23 08:58:14;;;;;;;1.50;1.40;;;19.60;63.70;;;;;;5121808;27;43745;-60
2022/10/23 09:00:42;;;;;;;1.13;1.13;;;19.60;63.80;;;;;;5115051;27;43783;-59
2022/10/23 09:03:11;;;;;;;1.20;1.20;;;19.70;63.80;;;;;;5118640;27;43915;-60
2022/10/23 09:06:08;;;;;;;1.50;1.38;;;19.70;63.70;;;;;;5105754;27;43594;-59
2022/10/23 09:09:09;;;;;;;1.55;1.42;;;19.70;63.70;;;;;;5104302;27;44949;-60
2022/10/23 09:11:55;;;;;;;1.30;1.20;;;19.70;63.60;;;;;;5097071;27;43454;-59
2022/10/23 09:14:47;;;;;;;1.60;1.50;;;19.70;63.80;;;;;;5123321;27;43383;-59
2022/10/23 09:17:40;;;;;;;1.55;1.42;;;19.80;63.80;;;;;;5113647;27;43508;-60
2022/10/23 09:20:32;;;;;;;1.65;1.38;;;19.70;63.60;;;;;;5116787;27;44200;-59
2022/10/23 09:23:14;;;;;;;1.58;1.48;;;19.80;63.90;;;;;;5110029;27;43503;-59
2022/10/23 09:25:44;;;;;;;1.20;1.20;;;19.80;63.80;;;;;;5117316;27;43381;-59
2022/10/23 09:28:24;;;;;;;3.40;1.50;;;19.80;63.80;;;;;;5112626;27;43529;-59
2022/10/23 09:30:52;;;;;;;1.48;1.38;;;19.80;63.90;;;;;;5115354;27;45089;-59
2022/10/23 09:33:25;;;;;;;1.45;1.35;;;19.80;63.90;;;;;;5123413;27;43442;-59
2022/10/23 09:36:01;;;;;;;1.50;1.15;;;19.80;63.90;;;;;;5116697;27;43440;-58
2022/10/23 09:38:33;;;;;;;2.45;1.50;;;19.90;63.90;;;;;;5115122;27;43629;-58
2022/10/23 09:41:09;;;;;;;1.58;1.48;;;19.90;63.80;;;;;;5121543;27;44710;-58
2022/10/23 09:43:37;;;;;;;1.17;1.08;;;19.90;63.90;;;;;;5108617;27;43491;-58
2022/10/23 09:46:06;;;;;;;2.53;1.42;;;19.90;63.90;;;;;;5075002;27;43478;-59
2022/10/23 09:48:36;;;;;;;1.25;1.15;;;19.90;63.80;;;;;;5118950;27;43537;-59
2022/10/23 09:51:19;;;;;;;1.67;1.58;;;20.00;63.80;;;;;;5117849;27;45062;-59
2022/10/23 09:53:55;;;;;;;1.45;1.35;;;20.00;63.80;;;;;;5118154;27;44260;-58
2022/10/23 09:56:39;;;;;;;2.22;1.50;;;20.00;63.90;;;;;;5114825;27;43459;-59
2022/10/23 09:59:13;;;;;;;2.63;2.10;;;20.00;63.90;;;;;;5112964;27;43506;-58
2022/10/23 10:02:23;;;;;;;3.92;3.50;;;20.00;63.80;;;;;;5116953;27;44901;-59
2022/10/23 10:05:37;;;;;;;5.53;4.50;;;20.00;64.10;;;;;;5106885;27;43483;-59
2022/10/23 10:08:47;;;;;;;6.95;4.55;;;20.00;64.10;;;;;;5096321;27;43471;-58
2022/10/23 10:11:24;;;;;;;6.95;4.95;;;20.10;64.10;;;;;;5119020;27;43408;-59
2022/10/23 10:13:56;;;;;;;5.38;4.43;;;20.20;64.20;;;;;;5100169;27;43951;-60
2022/10/23 10:16:49;;;;;;;9.40;4.40;;;20.30;64.10;;;;;;5116379;27;43479;-59
2022/10/23 10:19:39;;;;;;;5.18;3.80;;;20.50;63.90;;;;;;5100642;27;43443;-60
2022/10/23 10:22:41;;;;;;;5.40;4.15;;;20.60;63.70;;;;;;5119752;27;43368;-59
2022/10/23 10:25:32;;;;;;;4.07;3.72;;;20.80;63.50;;;;;;5096675;27;43742;-59
2022/10/23 10:28:00;;;;;;;4.53;3.63;;;20.90;63.30;;;;;;5095831;27;44075;-59
2022/10/23 10:30:43;;;;;;;3.90;3.50;;;21.00;63.20;;;;;;5119079;27;43478;-59
2022/10/23 10:33:23;;;;;;;;;;;21.10;63.10;;;;;;5100493;27;43523;-59
2022/10/23 10:36:15;;;;;;;3.65;3.35;;;21.20;63.00;;;;;;5114444;27;44085;-59
2022/10/23 10:38:45;;;;;;;3.70;3.40;;;21.20;62.90;;;;;;5092891;27;43448;-59
2022/10/23 10:41:44;;;;;;;2.97;2.75;;;21.30;62.80;;;;;;5117844;27;43471;-59
2022/10/23 10:44:23;;;;;;;3.40;3.10;;;21.30;62.60;;;;;;5119341;27;44009;-59
2022/10/23 10:47:24;;;;;;;4.15;2.83;;;21.40;62.70;;;;;;5120174;27;43571;-59
2022/10/23 10:50:21;;;;;;;3.53;3.22;;;21.40;62.60;;;;;;5093468;27;43515;-60
2022/10/23 10:53:00;;;;;;;3.67;2.88;;;21.50;62.60;;;;;;5093659;27;43478;-59
2022/10/23 10:55:40;;;;;;;3.33;2.60;;;21.50;62.60;;;;;;5120352;27;43497;-59
2022/10/23 10:58:41;;;;;;;3.65;2.50;;;21.50;62.50;;;;;;5108790;27;43823;-59
2022/10/23 11:01:35;;;;;;;3.10;2.80;;;21.60;62.50;;;;;;5112068;27;43667;-59
2022/10/23 11:04:44;;;;;;;3.17;2.67;;;21.60;62.50;;;;;;5112595;27;43474;-59
2022/10/23 11:07:17;;;;;;;2.83;2.40;;;21.60;62.50;;;;;;5105648;27;43569;-59
2022/10/23 11:09:45;;;;;;;2.38;2.17;;;21.60;62.50;;;;;;5109374;27;43824;-59
2022/10/23 11:12:23;;;;;;;2.88;2.40;;;21.60;62.50;;;;;;5121014;27;43403;-59
2022/10/23 11:14:51;;;;;;;3.15;2.47;;;21.60;62.50;;;;;;5125639;27;43431;-60
2022/10/23 11:17:39;;;;;;;2.25;2.05;;;21.70;62.60;;;;;;5114853;27;43438;-59
2022/10/23 11:20:52;;;;;;;3.22;2.00;;;21.70;62.50;;;;;;5095731;27;44125;-59
2022/10/23 11:23:57;;;;;;;2.15;1.92;;;21.70;62.50;;;;;;5108658;27;43437;-59
2022/10/23 11:26:30;;;;;;;2.95;2.10;;;21.70;62.50;;;;;;5084293;27;43486;-59
2022/10/23 11:29:17;;;;;;;2.33;2.08;;;21.70;62.70;;;;;;5097080;27;43378;-59
2022/10/23 11:32:04;;;;;;;3.35;1.92;;;21.70;62.70;;;;;;5118868;27;43983;-59
2022/10/23 11:34:46;;;;;;;2.33;2.10;;;21.70;62.70;;;;;;5126394;27;43453;-59
2022/10/23 11:37:18;;;;;;;2.60;2.30;;;21.70;62.80;;;;;;5112974;27;43428;-59
2022/10/23 11:39:58;;;;;;;2.85;2.10;;;21.70;62.70;;;;;;5115735;27;43452;-59
2022/10/23 11:42:40;;;;;;;3.20;2.08;;;21.70;62.80;;;;;;5113117;27;43750;-59
2022/10/23 11:45:27;;;;;;;3.17;1.80;;;21.70;62.70;;;;;;5111855;27;43411;-59
2022/10/23 11:48:03;;;;;;;1.83;1.73;;;21.70;62.80;;;;;;5110577;27;43456;-59
2022/10/23 11:50:33;;;;;;;1.90;1.80;;;21.60;62.80;;;;;;5121958;27;43472;-60
2022/10/23 11:53:09;;;;;;;2.25;2.03;;;21.70;62.80;;;;;;5122839;27;43795;-59
2022/10/23 11:56:10;;;;;;;1.77;1.65;;;21.70;62.90;;;;;;5089361;27;43471;-59
2022/10/23 11:58:54;;;;;;;3.80;2.00;;;21.70;62.90;;;;;;5116483;27;43454;-59
2022/10/23 12:01:33;;;;;;;2.10;2.00;;;21.70;63.00;;;;;;5120497;27;43502;-59
2022/10/23 12:04:13;;;;;;;2.63;1.75;;;21.60;63.00;;;;;;5126072;27;44061;-59
2022/10/23 12:06:48;;;;;;;1.63;1.52;;;21.60;63.00;;;;;;5115368;27;43490;-59
2022/10/23 12:09:22;;;;;;;3.20;1.65;;;21.60;63.00;;;;;;5109792;27;43370;-59
2022/10/23 12:12:06;;;;;;;3.00;1.90;;;21.60;63.00;;;;;;5120180;27;43382;-59
2022/10/23 12:14:43;;;;;;;2.22;1.67;;;21.60;63.00;;;;;;5113144;27;43790;-59
2022/10/23 12:17:23;;;;;;;1.95;1.63;;;21.60;63.10;;;;;;5097530;27;43435;-59
2022/10/23 12:20:11;;;;;;;1.60;1.50;;;21.60;63.10;;;;;;5111556;27;43549;-59
2022/10/23 12:22:46;;;;;;;1.98;1.60;;;21.60;63.10;;;;;;5121369;27;43541;-59
2022/10/23 12:25:18;;;;;;;2.13;1.55;;;21.60;63.00;;;;;;5115465;27;43747;-60
2022/10/23 12:28:18;;;;;;;2.45;1.60;;;21.60;63.10;;;;;;5096874;27;43429;-60
2022/10/23 12:31:22;;;;;;;1.70;1.52;;;21.60;63.20;;;;;;5083820;27;43424;-59
2022/10/23 12:34:07;;;;;;;1.48;1.38;;;21.60;63.10;;;;;;5111114;27;43526;-59
2022/10/23 12:37:29;;;;;;;1.73;1.55;;;21.50;63.20;;;;;;5110884;27;44890;-59
2022/10/23 12:40:00;;;;;;;2.72;1.60;;;21.60;63.30;;;;;;5058857;27;43435;-59
2022/10/23 12:42:28;;;;;;;2.08;1.60;;;21.60;63.30;;;;;;5094627;27;43449;-59
2022/10/23 12:45:01;;;;;;;1.67;1.58;;;21.50;64.00;;;;;;5111912;27;43430;-60
2022/10/23 12:47:29;;;;;;;2.47;1.60;;;21.50;63.40;;;;;;5120726;27;44008;-59
2022/10/23 12:49:57;;;;;;;1.70;1.50;;;21.50;63.40;;;;;;5124673;27;43453;-59
2022/10/23 12:52:24;;;;;;;2.75;1.50;;;21.50;63.50;;;;;;5112512;27;43373;-59
2022/10/23 12:54:52;;;;;;;1.67;1.40;;;21.50;63.60;;;;;;5115288;27;43457;-59
2022/10/23 12:57:29;;;;;;;1.70;1.60;;;21.50;63.50;;;;;;5118507;27;44049;-59
2022/10/23 13:00:11;;;;;;;1.85;1.75;;;21.50;63.50;;;;;;5120870;27;43449;-59
2022/10/23 13:02:39;;;;;;;1.50;1.40;;;21.50;63.40;;;;;;5114723;27;43452;-59
2022/10/23 13:05:12;;;;;;;1.73;1.38;;;21.50;63.50;;;;;;5092281;27;43508;-59
2022/10/23 13:07:46;;;;;;;1.40;1.30;;;21.50;63.60;;;;;;5117878;27;44958;-59
2022/10/23 13:10:19;;;;;;;2.08;1.40;;;21.50;63.50;;;;;;5115288;27;43794;-59
2022/10/23 13:13:00;;;;;;;1.90;1.50;;;21.50;63.50;;;;;;5103950;27;43414;-59
2022/10/23 13:15:38;;;;;;;2.17;1.63;;;21.50;63.50;;;;;;5098339;27;43475;-59
2022/10/23 13:18:06;;;;;;;1.77;1.65;;;21.50;63.50;;;;;;5122161;27;43792;-59
2022/10/23 13:20:43;;;;;;;1.67;1.58;;;21.50;63.60;;;;;;5112512;27;43457;-59
2022/10/23 13:23:15;;;;;;;1.42;1.33;;;21.50;63.50;;;;;;5116229;27;43403;-59
2022/10/23 13:25:53;;;;;;;2.95;1.50;;;21.50;63.60;;;;;;5120588;27;43402;-59
2022/10/23 13:28:25;;;;;;;4.18;1.73;;;21.50;63.60;;;;;;5124541;27;44045;-59
2022/10/23 13:31:06;;;;;;;2.78;1.60;;;21.50;63.70;;;;;;5121423;27;43568;-59
2022/10/23 13:33:36;;;;;;;1.55;1.45;;;21.50;63.70;;;;;;5115121;27;43502;-59
2022/10/23 13:36:13;;;;;;;2.60;1.58;;;21.40;63.70;;;;;;5108005;27;43422;-59
2022/10/23 13:38:45;;;;;;;2.80;1.58;;;21.50;63.80;;;;;;5091453;27;44983;-59